地図

経路データ

SID SEASON NUMBER BASIN SUBBASIN NAME ISO_TIME NATURE LAT LON WMO_WIND WMO_PRES WMO_AGENCY TRACK_TYPE DIST2LAND LANDFALL IFLAG USA_AGENCY USA_ATCF_ID USA_LAT USA_LON USA_RECORD USA_STATUS USA_WIND USA_PRES USA_SSHS USA_R34_NE USA_R34_SE USA_R34_SW USA_R34_NW USA_R50_NE USA_R50_SE USA_R50_SW USA_R50_NW USA_R64_NE USA_R64_SE USA_R64_SW USA_R64_NW USA_POCI USA_ROCI USA_RMW USA_EYE TOKYO_LAT TOKYO_LON TOKYO_GRADE TOKYO_WIND TOKYO_PRES TOKYO_R50_DIR TOKYO_R50_LONG TOKYO_R50_SHORT TOKYO_R30_DIR TOKYO_R30_LONG TOKYO_R30_SHORT TOKYO_LAND CMA_LAT CMA_LON CMA_CAT CMA_WIND CMA_PRES HKO_LAT HKO_LON HKO_CAT HKO_WIND HKO_PRES NEWDELHI_LAT NEWDELHI_LON NEWDELHI_GRADE NEWDELHI_WIND NEWDELHI_PRES NEWDELHI_CI NEWDELHI_DP NEWDELHI_POCI REUNION_LAT REUNION_LON REUNION_TYPE REUNION_WIND REUNION_PRES REUNION_TNUM REUNION_CI REUNION_RMW REUNION_R34_NE REUNION_R34_SE REUNION_R34_SW REUNION_R34_NW REUNION_R50_NE REUNION_R50_SE REUNION_R50_SW REUNION_R50_NW REUNION_R64_NE REUNION_R64_SE REUNION_R64_SW REUNION_R64_NW BOM_LAT BOM_LON BOM_TYPE BOM_WIND BOM_PRES BOM_TNUM BOM_CI BOM_RMW BOM_R34_NE BOM_R34_SE BOM_R34_SW BOM_R34_NW BOM_R50_NE BOM_R50_SE BOM_R50_SW BOM_R50_NW BOM_R64_NE BOM_R64_SE BOM_R64_SW BOM_R64_NW BOM_ROCI BOM_POCI BOM_EYE BOM_POS_METHOD BOM_PRES_METHOD NADI_LAT NADI_LON NADI_CAT NADI_WIND NADI_PRES WELLINGTON_LAT WELLINGTON_LON WELLINGTON_WIND WELLINGTON_PRES DS824_LAT DS824_LON DS824_STAGE DS824_WIND DS824_PRES TD9636_LAT TD9636_LON TD9636_STAGE TD9636_WIND TD9636_PRES TD9635_LAT TD9635_LON TD9635_WIND TD9635_PRES TD9635_ROCI NEUMANN_LAT NEUMANN_LON NEUMANN_CLASS NEUMANN_WIND NEUMANN_PRES MLC_LAT MLC_LON MLC_CLASS MLC_WIND MLC_PRES USA_GUST BOM_GUST BOM_GUST_PER REUNION_GUST REUNION_GUST_PER USA_SEAHGT USA_SEARAD_NE USA_SEARAD_SE USA_SEARAD_SW USA_SEARAD_NW STORM_SPEED STORM_DIR
1969261N17088 1969 81 NI BB NOT_NAMED 1969-09-17 18:00:00 TS 17.2000 87.8000 main 346 346 O________O____ jtwc_io IO081969 17.2000 87.8000 -1 17.2000 87.8000 TC 1 69
1969261N17088 1969 81 NI BB NOT_NAMED 1969-09-17 21:00:00 TS 17.2200 87.8650 main 350 336 P________P____ IO081969 17.2200 87.8650 -1 17.2200 87.8650 TC 1 0
1969261N17088 1969 81 NI BB NOT_NAMED 1969-09-18 00:00:00 TS 17.3000 87.8000 main 336 302 O________O____ jtwc_io IO081969 17.3000 87.8000 -1 17.3000 87.8000 TC 25 4 309
1969261N17088 1969 81 NI BB NOT_NAMED 1969-09-18 03:00:00 TS 17.4911 87.5154 main 302 256 P________PO___ IO081969 17.4900 87.5174 -1 17.4900 87.5174 TC 25 17.5000 87.5000 1 9 308
1969261N17088 1969 81 NI BB NOT_NAMED 1969-09-18 06:00:00 TS 17.8260 87.0985 main 256 200 O________OP___ jtwc_io IO081969 17.8000 87.1000 -1 17.8000 87.1000 TC 25 17.9298 87.0923 1 11 314
1969261N17088 1969 81 NI BB NOT_NAMED 1969-09-18 09:00:00 TS 18.2738 86.6766 main 189 130 P________PP___ IO081969 18.2499 86.6802 -1 18.2499 86.6802 TC 25 18.3375 86.6668 1 12 316
1969261N17088 1969 81 NI BB NOT_NAMED 1969-09-18 12:00:00 TS 18.7005 86.2026 main 130 74 O________OP___ jtwc_io IO081969 18.7000 86.2000 -1 18.7000 86.2000 TC 25 18.7014 86.2079 1 12 307
1969261N17088 1969 81 NI BB NOT_NAMED 1969-09-18 15:00:00 TS 18.9966 85.6765 main 74 23 P________PO___ IO081969 18.9950 85.6648 -1 18.9950 85.6648 TC 25 19.0000 85.7000 1 12 296
1969261N17088 1969 81 NI BB NOT_NAMED 1969-09-18 18:00:00 TS 19.2064 85.1119 main 23 0 O________OP___ jtwc_io IO081969 19.2000 85.1000 -1 19.2000 85.1000 TC 25 19.2192 85.1358 1 11 289
1969261N17088 1969 81 NI BB NOT_NAMED 1969-09-18 21:00:00 TS 19.3734 84.5471 main 0 0 P________PP___ IO081969 19.3723 84.5498 -1 19.3723 84.5498 TC 25 19.3757 84.5415 1 11 285
1969261N17088 1969 81 NI BB NOT_NAMED 1969-09-19 00:00:00 TS 19.4981 83.9838 main 0 0 O________OP___ jtwc_io IO081969 19.5000 84.0000 -1 19.5000 84.0000 TC 25 19.4942 83.9516 1 11 282
1969261N17088 1969 81 NI BB NOT_NAMED 1969-09-19 03:00:00 TS 19.6000 83.4232 main 0 0 P________PO___ IO081969 19.6000 83.4348 -1 19.6000 83.4348 TC 25 19.6000 83.4000 1 11 282
1969261N17088 1969 81 NI BB NOT_NAMED 1969-09-19 06:00:00 TS 19.7147 82.8930 main 0 0 O________OP___ jtwc_io IO081969 19.7000 82.9000 -1 19.7000 82.9000 TC 25 19.7441 82.8791 1 10 285
1969261N17088 1969 81 NI BB NOT_NAMED 1969-09-19 09:00:00 TS 19.8649 82.4010 main 0 0 P________PP___ IO081969 19.8575 82.3976 -1 19.8575 82.3976 TC 25 19.8798 82.4076 1 9 289
1969261N17088 1969 81 NI BB NOT_NAMED 1969-09-19 12:00:00 TS 20.0002 82.0024 main 0 0 O________OP___ jtwc_io IO081969 20.0000 82.0000 -1 20.0000 82.0000 TC 25 20.0006 82.0073 1 7 289
1969261N17088 1969 81 NI BB NOT_NAMED 1969-09-19 15:00:00 TS 20.0766 81.7316 main 0 0 P________PO___ IO081969 20.0648 81.7474 -1 20.0648 81.7474 TC 25 20.1000 81.7000 1 4 287
1969261N17088 1969 81 NI BB NOT_NAMED 1969-09-19 18:00:00 TS 20.1236 81.5714 main 0 0 O________OP___ jtwc_io IO081969 20.1000 81.6000 -1 20.1000 81.6000 TC 25 20.1709 81.5143 1 3 291
1969261N17088 1969 81 NI BB NOT_NAMED 1969-09-19 21:00:00 TS 20.1739 81.4623 main 0 0 P________PP___ IO081969 20.1500 81.4850 -1 20.1500 81.4850 TC 25 20.2217 81.4170 1 2 299
1969261N17088 1969 81 NI BB NOT_NAMED 1969-09-20 00:00:00 TS 20.2206 81.3871 main 0 0 O________OP___ jtwc_io IO081969 20.2000 81.4000 -1 20.2000 81.4000 TC 25 20.2617 81.3613 1 2 304
1969261N17088 1969 81 NI BB NOT_NAMED 1969-09-20 03:00:00 TS 20.2666 81.3100 main 0 0 P________PO___ IO081969 20.2500 81.3150 -1 20.2500 81.3150 TC 25 20.3000 81.3000 1 2 297
1969261N17088 1969 81 NI BB NOT_NAMED 1969-09-20 06:00:00 TS 20.3167 81.1841 main 0 0 O________OP___ jtwc_io IO081969 20.3000 81.2000 -1 20.3000 81.2000 TC 25 20.3501 81.1522 1 3 289
1969261N17088 1969 81 NI BB NOT_NAMED 1969-09-20 09:00:00 TS 20.3667 80.9975 main 0 0 P________PP___ IO081969 20.3501 81.0000 -1 20.3501 81.0000 TC 25 20.4001 80.9925 1 4 286
1969261N17088 1969 81 NI BB NOT_NAMED 1969-09-20 12:00:00 TS 20.4167 80.8122 main 0 0 O________OP___ jtwc_io IO081969 20.4000 80.8000 -1 20.4000 80.8000 TC 25 20.4501 80.8366 1 3 289
1969261N17088 1969 81 NI BB NOT_NAMED 1969-09-20 15:00:00 TS 20.4666 80.6850 main 0 0 P________PO___ IO081969 20.4500 80.6775 -1 20.4500 80.6775 TC 25 20.5000 80.7000 1 2 293
1969261N17088 1969 81 NI BB NOT_NAMED 1969-09-20 18:00:00 TS 20.4977 80.6064 main 0 0 O________OP___ jtwc_io IO081969 20.5000 80.6000 -1 20.5000 80.6000 TC 25 20.4930 80.6192 1 1 295
1969261N17088 1969 81 NI BB NOT_NAMED 1969-09-20 21:00:00 TS 20.5216 80.5572 main 0 0 P________PP___ IO081969 20.5350 80.5574 -1 20.5350 80.5574 TC 25 20.4948 80.5568 1 1 309
1969261N17088 1969 81 NI BB NOT_NAMED 1969-09-21 00:00:00 TS 20.5831 80.4970 main 0 0 O________OP___ jtwc_io IO081969 20.6000 80.5000 -1 20.6000 80.5000 TC 25 20.5492 80.4909 1 2 316
1969261N17088 1969 81 NI BB NOT_NAMED 1969-09-21 03:00:00 TS 20.6933 80.3766 main 0 0 P________PO___ IO081969 20.6900 80.3649 -1 20.6900 80.3649 TC 25 20.7000 80.4000 1 4 323
1969261N17088 1969 81 NI BB NOT_NAMED 1969-09-21 06:00:00 TS 20.9318 80.2127 main 0 0 O________OP___ jtwc_io IO081969 20.9000 80.2000 -1 20.9000 80.2000 TC 25 20.9955 80.2382 1 7 335
1969261N17088 1969 81 NI BB NOT_NAMED 1969-09-21 09:00:00 TS 21.3326 80.0504 main 0 0 P________PP___ IO081969 21.3050 80.0500 -1 21.3050 80.0500 TC 25 21.3878 80.0510 1 9 341
1969261N17088 1969 81 NI BB NOT_NAMED 1969-09-21 12:00:00 TS 21.8120 79.8877 main 0 0 O________OP___ jtwc_io IO081969 21.8000 79.9000 -1 21.8000 79.9000 TC 25 21.8361 79.8632 1 10 342
1969261N17088 1969 81 NI BB NOT_NAMED 1969-09-21 15:00:00 TS 22.2667 79.7283 main 0 0 P________PO___ IO081969 22.2500 79.7425 -1 22.2500 79.7425 TC 25 22.3000 79.7000 1 10 343
1969261N17088 1969 81 NI BB NOT_NAMED 1969-09-21 18:00:00 TS 22.7187 79.5923 main 0 0 O________OP___ jtwc_io IO081969 22.7000 79.6000 -1 22.7000 79.6000 TC 25 22.7467 79.5807 1 9 346
1969261N17088 1969 81 NI BB NOT_NAMED 1969-09-21 21:00:00 TS 23.1606 79.4941 main 0 0 P________PP___ IO081969 23.1500 79.4901 -1 23.1500 79.4901 TC 25 23.1748 79.4994 1 9 350
1969261N17088 1969 81 NI BB NOT_NAMED 1969-09-22 00:00:00 TS 23.5952 79.4217 main 0 0 O________OP___ jtwc_io IO081969 23.6000 79.4000 -1 23.6000 79.4000 TC 25 23.5905 79.4434 1 8 354
1969261N17088 1969 81 NI BB NOT_NAMED 1969-09-22 03:00:00 NR 24.0000 79.4000 main 0 __________O___ IO081969 -1 TC 24.0000 79.4000 1 8 357

IBTrACS Databaseについて

本データベースは、米国NOAAが公開する1842年以降の世界の熱帯低気圧のベストトラックデータアーカイブInternational Best Track Archive for Climate Stewardship (IBTrACS)を、ウェブで閲覧しやすい形式に変換したものです。

最終更新日:2021-10-19